createdAt,value
2023-04-03T00:01:26.568Z,1.20
2023-04-03T00:03:55.039Z,1.00
2023-04-03T00:06:23.540Z,1.10
2023-04-03T00:08:52.267Z,1.30
2023-04-03T00:11:20.921Z,1.20
2023-04-03T00:13:49.271Z,1.00
2023-04-03T00:16:19.034Z,0.82
2023-04-03T00:18:47.233Z,1.10
2023-04-03T00:21:16.558Z,1.00
2023-04-03T00:23:44.884Z,1.10
2023-04-03T00:26:13.093Z,0.80
2023-04-03T00:28:42.615Z,0.82
2023-04-03T00:31:10.914Z,0.90
2023-04-03T00:33:40.558Z,1.08
2023-04-03T00:36:11.392Z,1.50
2023-04-03T00:38:39.968Z,1.20
2023-04-03T00:41:08.888Z,1.00
2023-04-03T00:43:37.151Z,1.00
2023-04-03T00:46:05.628Z,1.10
2023-04-03T00:48:36.280Z,1.20
2023-04-03T00:51:10.756Z,1.20
2023-04-03T00:53:43.681Z,1.00
2023-04-03T00:56:16.130Z,1.45
2023-04-03T00:58:48.780Z,1.50
2023-04-03T01:01:22.022Z,1.00
2023-04-03T01:03:51.112Z,1.30
2023-04-03T01:06:27.372Z,1.42
2023-04-03T01:08:56.776Z,1.20
2023-04-03T01:11:25.941Z,0.93
2023-04-03T01:13:55.605Z,1.52
2023-04-03T01:16:24.016Z,1.20
2023-04-03T01:18:52.513Z,1.20
2023-04-03T01:22:04.930Z,1.17
2023-04-03T01:24:36.352Z,1.00
2023-04-03T01:27:11.626Z,1.40
2023-04-03T01:29:40.610Z,1.00
2023-04-03T01:32:10.558Z,1.00
2023-04-03T01:34:39.758Z,1.00
2023-04-03T01:37:08.273Z,1.00
2023-04-03T01:39:36.617Z,1.20
2023-04-03T01:42:06.787Z,1.02
2023-04-03T01:44:40.122Z,1.10
2023-04-03T01:47:10.310Z,1.33
2023-04-03T01:49:41.346Z,1.20
2023-04-03T01:52:09.875Z,1.20
2023-04-03T01:54:38.956Z,1.20
2023-04-03T01:57:07.918Z,1.20
2023-04-03T01:59:36.846Z,1.30
2023-04-03T02:02:05.118Z,1.30
2023-04-03T02:04:34.944Z,0.98
2023-04-03T02:07:03.157Z,1.15
2023-04-03T02:09:31.385Z,1.23
2023-04-03T02:11:59.895Z,1.00
2023-04-03T02:14:28.781Z,1.00
2023-04-03T02:16:57.292Z,1.30
2023-04-03T02:19:25.908Z,1.20
2023-04-03T02:21:55.523Z,1.27
2023-04-03T02:24:24.075Z,1.20
2023-04-03T02:26:52.373Z,1.00
2023-04-03T02:29:21.144Z,1.05
2023-04-03T02:31:49.777Z,0.90
2023-04-03T02:34:18.252Z,1.10
2023-04-03T02:36:47.871Z,1.00
2023-04-03T02:39:18.858Z,1.30
2023-04-03T02:41:47.132Z,1.00
2023-04-03T02:44:21.217Z,1.17
2023-04-03T02:46:49.495Z,1.35
2023-04-03T02:49:19.063Z,1.30
2023-04-03T02:51:47.326Z,1.40
2023-04-03T02:54:15.981Z,0.90
2023-04-03T02:56:50.087Z,1.50
2023-04-03T02:59:18.518Z,1.10
2023-04-03T03:01:47.017Z,1.35
2023-04-03T03:04:15.539Z,1.38
2023-04-03T03:06:44.904Z,1.30
2023-04-03T03:09:15.765Z,1.10
2023-04-03T03:11:44.700Z,1.10
2023-04-03T03:14:14.507Z,1.02
2023-04-03T03:16:42.725Z,1.30
2023-04-03T03:19:11.285Z,1.20
2023-04-03T03:21:39.631Z,1.05
2023-04-03T03:24:08.823Z,1.20
2023-04-03T03:26:37.196Z,1.02
2023-04-03T03:29:05.772Z,1.00
2023-04-03T03:31:35.920Z,1.20
2023-04-03T03:34:04.224Z,1.40
2023-04-03T03:36:32.788Z,1.23
2023-04-03T03:39:01.196Z,0.90
2023-04-03T03:41:30.056Z,1.33
2023-04-03T03:43:58.322Z,1.20
2023-04-03T03:46:28.891Z,1.00
2023-04-03T03:48:58.580Z,1.48
2023-04-03T03:51:26.818Z,1.00
2023-04-03T03:53:55.493Z,1.13
2023-04-03T03:56:24.633Z,1.50
2023-04-03T03:58:53.478Z,1.17
2023-04-03T04:01:23.318Z,1.00
2023-04-03T04:03:51.900Z,1.40
2023-04-03T04:06:25.077Z,1.30
2023-04-03T04:08:55.757Z,1.20
2023-04-03T04:11:24.133Z,1.25
2023-04-03T04:13:53.852Z,1.20
2023-04-03T04:16:26.500Z,1.20
2023-04-03T04:18:56.113Z,1.35
2023-04-03T04:21:26.908Z,1.35
2023-04-03T04:23:56.629Z,1.20
2023-04-03T04:26:26.085Z,1.10
2023-04-03T04:28:54.728Z,1.40
2023-04-03T04:31:23.280Z,1.10
2023-04-03T04:33:51.680Z,1.50
2023-04-03T04:36:20.777Z,1.10
2023-04-03T04:38:53.863Z,1.40
2023-04-03T04:41:24.436Z,1.08
2023-04-03T04:43:54.036Z,1.70
2023-04-03T04:46:22.692Z,1.15
2023-04-03T04:48:55.797Z,1.55
2023-04-03T04:51:25.593Z,1.30
2023-04-03T04:53:56.132Z,1.50
2023-04-03T04:56:26.494Z,1.40
2023-04-03T04:58:57.195Z,1.33
2023-04-03T05:01:27.370Z,1.20
2023-04-03T05:04:02.103Z,1.25
2023-04-03T05:06:31.173Z,1.55
2023-04-03T05:09:01.137Z,1.63
2023-04-03T05:11:30.124Z,1.50
2023-04-03T05:13:58.616Z,1.40
2023-04-03T05:16:28.495Z,1.93
2023-04-03T05:18:57.586Z,1.10
2023-04-03T05:21:27.135Z,1.20
2023-04-03T05:23:56.225Z,1.20
2023-04-03T05:26:26.567Z,1.60
2023-04-03T05:28:55.476Z,1.50
2023-04-03T05:31:23.883Z,1.98
2023-04-03T05:33:52.694Z,1.50
2023-04-03T05:36:20.959Z,1.80
2023-04-03T05:38:54.354Z,1.98
2023-04-03T05:41:22.991Z,1.38
2023-04-03T05:43:53.228Z,1.70
2023-04-03T05:46:23.307Z,1.30
2023-04-03T05:48:55.430Z,1.50
2023-04-03T05:51:30.925Z,1.30
2023-04-03T05:54:11.362Z,1.60
2023-04-03T05:56:39.709Z,1.90
2023-04-03T05:59:09.568Z,1.90
2023-04-03T06:01:38.696Z,1.65
2023-04-03T06:04:09.989Z,2.10
2023-04-03T06:06:46.772Z,2.10
2023-04-03T06:09:15.392Z,1.50
2023-04-03T06:11:43.873Z,1.50
2023-04-03T06:14:13.726Z,1.50
2023-04-03T06:16:42.093Z,1.37
2023-04-03T06:19:10.759Z,1.38
2023-04-03T06:21:42.245Z,1.90
2023-04-03T06:24:11.560Z,1.52
2023-04-03T06:26:39.960Z,1.40
2023-04-03T06:29:08.164Z,1.50
2023-04-03T06:31:38.503Z,1.63
2023-04-03T06:34:09.663Z,1.35
2023-04-03T06:36:38.377Z,1.30
2023-04-03T06:39:06.795Z,1.60
2023-04-03T06:41:36.740Z,1.58
2023-04-03T06:44:05.570Z,1.63
2023-04-03T06:46:34.673Z,1.67
2023-04-03T06:49:04.499Z,1.40
2023-04-03T06:51:33.127Z,1.20
2023-04-03T06:54:02.016Z,1.60
2023-04-03T06:56:30.432Z,1.52
2023-04-03T06:58:59.473Z,1.65
2023-04-03T07:01:31.003Z,1.40
2023-04-03T07:03:59.670Z,1.60
2023-04-03T07:06:29.414Z,1.67
2023-04-03T07:08:57.786Z,1.70
2023-04-03T07:11:27.090Z,1.10
2023-04-03T07:13:55.447Z,1.10
2023-04-03T07:16:23.721Z,1.30
2023-04-03T07:18:52.114Z,1.40
2023-04-03T07:21:20.282Z,1.50
2023-04-03T07:26:23.238Z,1.40
2023-04-03T07:28:52.212Z,1.45
2023-04-03T07:31:20.870Z,1.90
2023-04-03T07:33:49.300Z,1.20
2023-04-03T07:36:20.086Z,1.73
2023-04-03T07:38:50.326Z,1.80
2023-04-03T07:41:23.464Z,1.05
2023-04-03T07:43:51.918Z,1.33
2023-04-03T07:46:20.256Z,1.23
2023-04-03T07:48:48.640Z,1.40
2023-04-03T07:51:17.301Z,1.30
2023-04-03T07:53:45.525Z,0.90
2023-04-03T07:56:15.112Z,1.67
2023-04-03T07:58:43.313Z,1.17
2023-04-03T08:01:11.950Z,1.20
2023-04-03T08:03:41.012Z,1.20
2023-04-03T08:06:15.540Z,1.20
2023-04-03T08:08:45.146Z,1.00
2023-04-03T08:11:14.817Z,1.30
2023-04-03T08:13:43.910Z,1.40
2023-04-03T08:16:13.501Z,0.90
2023-04-03T08:18:41.735Z,0.90
2023-04-03T08:21:10.787Z,1.30
2023-04-03T08:23:39.094Z,0.90
2023-04-03T08:26:12.648Z,1.10
2023-04-03T08:28:42.618Z,1.20
2023-04-03T08:31:14.693Z,1.00
2023-04-03T08:33:43.520Z,1.10
2023-04-03T08:36:21.163Z,0.93
2023-04-03T08:38:50.107Z,0.80
2023-04-03T08:41:31.586Z,1.40
2023-04-03T08:44:17.345Z,1.10
2023-04-03T08:47:01.155Z,0.80
2023-04-03T08:49:34.160Z,0.80
2023-04-03T08:52:07.743Z,0.95
2023-04-03T08:54:50.709Z,0.82
2023-04-03T08:57:22.504Z,1.10
2023-04-03T08:59:53.137Z,1.13
2023-04-03T09:02:30.358Z,1.10
2023-04-03T09:04:59.099Z,1.00
2023-04-03T09:07:38.463Z,0.90
2023-04-03T09:10:07.745Z,1.00
2023-04-03T09:12:40.620Z,0.70
2023-04-03T09:15:27.933Z,1.10
2023-04-03T09:18:08.204Z,1.00
2023-04-03T09:20:46.021Z,0.90
2023-04-03T09:23:30.053Z,0.90
2023-04-03T09:26:06.010Z,0.93
2023-04-03T09:28:46.871Z,0.90
2023-04-03T09:31:23.786Z,0.80
2023-04-03T09:33:55.673Z,0.70
2023-04-03T09:36:43.772Z,0.80
2023-04-03T09:39:16.996Z,1.40
2023-04-03T09:41:58.990Z,1.00
2023-04-03T09:44:28.684Z,0.98
2023-04-03T09:46:58.483Z,0.70
2023-04-03T09:49:26.947Z,1.00
2023-04-03T09:51:55.491Z,0.80
2023-04-03T09:54:40.610Z,0.80
2023-04-03T09:57:12.773Z,0.80
2023-04-03T09:59:46.980Z,0.80
2023-04-03T10:02:35.640Z,0.70
2023-04-03T10:07:38.313Z,0.88
2023-04-03T10:10:21.050Z,0.80
2023-04-03T10:12:50.179Z,1.00
2023-04-03T10:15:21.065Z,0.77
2023-04-03T10:17:57.732Z,0.70
2023-04-03T10:20:34.931Z,0.90
2023-04-03T10:23:16.928Z,0.90
2023-04-03T10:25:57.986Z,0.70
2023-04-03T10:28:33.317Z,0.80
2023-04-03T10:31:09.943Z,0.80
2023-04-03T10:33:48.867Z,0.80
2023-04-03T10:36:27.725Z,1.02
2023-04-03T10:39:04.351Z,0.80
2023-04-03T10:41:46.624Z,1.20
2023-04-03T10:44:22.761Z,0.80
2023-04-03T10:46:54.318Z,0.88
2023-04-03T10:49:44.626Z,1.00
2023-04-03T10:52:24.953Z,0.90
2023-04-03T10:55:05.040Z,0.70
2023-04-03T10:57:33.406Z,0.90
2023-04-03T11:00:06.189Z,0.70
2023-04-03T11:02:39.515Z,0.80
2023-04-03T11:05:17.782Z,0.65
2023-04-03T11:07:49.876Z,0.55
2023-04-03T11:10:25.878Z,0.90
2023-04-03T11:12:58.815Z,0.90
2023-04-03T11:15:28.277Z,0.67
2023-04-03T11:18:00.543Z,0.70
2023-04-03T11:20:34.263Z,1.00
2023-04-03T11:23:05.458Z,1.10
2023-04-03T11:25:36.988Z,0.90
2023-04-03T11:28:07.986Z,1.00
2023-04-03T11:30:44.207Z,0.80
2023-04-03T11:33:32.588Z,0.82
2023-04-03T11:36:18.965Z,0.93
2023-04-03T11:38:57.525Z,0.70
2023-04-03T11:41:31.667Z,1.00
2023-04-03T11:44:02.592Z,0.70
2023-04-03T11:46:55.631Z,0.60
2023-04-03T11:50:08.082Z,0.80
2023-04-03T11:53:06.118Z,0.73
2023-04-03T11:55:55.876Z,0.73
2023-04-03T11:58:26.206Z,1.27
2023-04-03T12:01:05.970Z,0.80
2023-04-03T12:03:59.704Z,0.73
2023-04-03T12:07:22.124Z,0.60
2023-04-03T12:10:02.950Z,0.60
2023-04-03T12:12:42.634Z,0.90
2023-04-03T12:15:45.400Z,0.90
2023-04-03T12:18:53.274Z,0.70
2023-04-03T12:21:23.679Z,0.88
2023-04-03T12:24:04.103Z,0.70
2023-04-03T12:26:47.985Z,0.80
2023-04-03T12:29:23.683Z,0.60
2023-04-03T12:32:07.200Z,0.70
2023-04-03T12:34:48.624Z,1.40
2023-04-03T12:37:39.312Z,0.80
2023-04-03T12:40:17.794Z,0.80
2023-04-03T12:43:05.370Z,0.90
2023-04-03T12:45:43.534Z,0.63
2023-04-03T12:48:17.111Z,1.35
2023-04-03T12:50:48.838Z,0.70
2023-04-03T12:53:20.180Z,0.90
2023-04-03T12:55:48.521Z,0.60
2023-04-03T12:58:23.326Z,0.80
2023-04-03T13:01:02.990Z,0.90
2023-04-03T13:03:32.262Z,1.00
2023-04-03T13:06:02.869Z,0.90
2023-04-03T13:08:32.567Z,0.80
2023-04-03T13:11:04.631Z,0.95
2023-04-03T13:13:34.370Z,1.00
2023-04-03T13:16:11.444Z,0.80
2023-04-03T13:18:40.186Z,0.90
2023-04-03T13:21:13.279Z,0.80
2023-04-03T13:23:45.432Z,0.85
2023-04-03T13:26:14.023Z,0.80
2023-04-03T13:28:44.643Z,0.80
2023-04-03T13:31:23.700Z,1.10
2023-04-03T13:33:58.636Z,0.85
2023-04-03T13:36:30.546Z,1.00
2023-04-03T13:39:06.175Z,0.70
2023-04-03T13:41:36.603Z,0.90
2023-04-03T13:44:27.695Z,1.20
2023-04-03T13:46:57.673Z,1.00
2023-04-03T13:49:33.065Z,1.00
2023-04-03T13:52:07.366Z,0.90
2023-04-03T13:54:38.791Z,1.20
2023-04-03T13:57:15.263Z,0.82
2023-04-03T13:59:47.837Z,0.97
2023-04-03T14:02:21.359Z,0.90
2023-04-03T14:04:59.338Z,1.00
2023-04-03T14:07:28.800Z,0.90
2023-04-03T14:09:57.592Z,0.80
2023-04-03T14:12:31.879Z,1.02
2023-04-03T14:15:03.565Z,0.82
2023-04-03T14:17:32.242Z,0.88
2023-04-03T14:20:01.932Z,1.17
2023-04-03T14:22:32.944Z,1.02
2023-04-03T14:25:01.476Z,1.00
2023-04-03T14:27:32.838Z,0.80
2023-04-03T14:30:04.114Z,1.10
2023-04-03T14:32:32.714Z,1.00
2023-04-03T14:35:01.577Z,1.00
2023-04-03T14:37:32.432Z,1.05
2023-04-03T14:40:02.881Z,0.98
2023-04-03T14:42:33.473Z,0.90
2023-04-03T14:45:05.721Z,1.10
2023-04-03T14:47:34.646Z,1.10
2023-04-03T14:50:05.523Z,1.00
2023-04-03T14:52:37.208Z,1.10
2023-04-03T14:55:07.844Z,1.00
2023-04-03T14:57:36.481Z,1.20
2023-04-03T15:00:09.682Z,1.00
2023-04-03T15:02:40.122Z,0.82
2023-04-03T15:05:10.739Z,0.90
2023-04-03T15:07:41.146Z,1.10
2023-04-03T15:10:18.816Z,0.90
2023-04-03T15:12:47.831Z,1.00
2023-04-03T15:15:20.838Z,1.00
2023-04-03T15:17:54.762Z,1.00
2023-04-03T15:20:25.476Z,1.70
2023-04-03T15:22:53.971Z,1.30
2023-04-03T15:25:22.273Z,1.10
2023-04-03T15:27:50.763Z,1.00
2023-04-03T15:30:22.499Z,0.90
2023-04-03T15:32:51.037Z,0.90
2023-04-03T15:35:19.620Z,0.90
2023-04-03T15:37:49.117Z,1.00
2023-04-03T15:40:17.990Z,0.90
2023-04-03T15:42:46.442Z,0.85
2023-04-03T15:45:14.727Z,0.90
2023-04-03T15:47:44.953Z,1.00
2023-04-03T15:50:13.387Z,0.90
2023-04-03T15:52:41.782Z,0.80
2023-04-03T15:55:10.522Z,0.80
2023-04-03T16:00:13.524Z,1.10
2023-04-03T16:02:44.106Z,1.03
2023-04-03T16:05:13.707Z,1.00
2023-04-03T16:07:42.518Z,0.80
2023-04-03T16:10:12.534Z,1.20
2023-04-03T16:12:40.954Z,1.00
2023-04-03T16:15:10.148Z,1.30
2023-04-03T16:17:41.792Z,1.10
2023-04-03T16:20:14.742Z,0.90
2023-04-03T16:22:43.849Z,1.10
2023-04-03T16:25:13.227Z,0.90
2023-04-03T16:27:41.669Z,1.17
2023-04-03T16:30:11.069Z,0.90
2023-04-03T16:32:41.029Z,1.17
2023-04-03T16:35:11.648Z,1.20
2023-04-03T16:37:40.861Z,1.08
2023-04-03T16:40:10.557Z,1.00
2023-04-03T16:42:38.758Z,1.30
2023-04-03T16:45:08.088Z,1.20
2023-04-03T16:47:36.671Z,1.17
2023-04-03T16:50:05.962Z,1.33
2023-04-03T16:52:35.661Z,1.10
2023-04-03T16:55:04.319Z,1.50
2023-04-03T16:57:32.586Z,1.20
2023-04-03T17:00:00.985Z,1.10
2023-04-03T17:02:30.259Z,1.00
2023-04-03T17:04:58.514Z,1.00
2023-04-03T17:07:27.835Z,1.30
2023-04-03T17:09:57.724Z,1.30
2023-04-03T17:12:26.912Z,1.10
2023-04-03T17:14:55.360Z,1.10
2023-04-03T17:17:26.266Z,0.90
2023-04-03T17:19:56.987Z,0.90
2023-04-03T17:22:25.508Z,1.00
2023-04-03T17:24:53.769Z,1.05
2023-04-03T17:27:23.732Z,1.45
2023-04-03T17:29:52.152Z,1.10
2023-04-03T17:32:20.473Z,0.82
2023-04-03T17:34:48.930Z,0.73
2023-04-03T17:37:17.250Z,1.30
2023-04-03T17:39:47.045Z,1.10
2023-04-03T17:42:16.084Z,0.90
2023-04-03T17:44:45.830Z,0.90
2023-04-03T17:47:14.064Z,1.50
2023-04-03T17:49:42.382Z,1.00
2023-04-03T17:52:11.028Z,1.13
2023-04-03T17:54:39.417Z,1.33
2023-04-03T17:57:08.866Z,1.25
2023-04-03T17:59:37.177Z,1.20
2023-04-03T18:02:06.941Z,1.20
2023-04-03T18:04:35.262Z,1.10
2023-04-03T18:07:04.754Z,1.30
2023-04-03T18:09:35.063Z,1.10
2023-04-03T18:12:05.644Z,1.20
2023-04-03T18:14:35.064Z,1.70
2023-04-03T18:17:06.438Z,1.40
2023-04-03T18:19:35.623Z,1.80
2023-04-03T18:22:06.216Z,1.90
2023-04-03T18:24:36.430Z,1.92
2023-04-03T18:27:07.738Z,1.65
2023-04-03T18:29:39.714Z,1.60
2023-04-03T18:32:11.182Z,1.80
2023-04-03T18:34:39.703Z,1.60
2023-04-03T18:37:08.003Z,1.27
2023-04-03T18:39:36.276Z,1.27
2023-04-03T18:42:09.517Z,1.30
2023-04-03T18:44:39.385Z,1.63
2023-04-03T18:47:09.430Z,2.00
2023-04-03T18:49:40.769Z,1.33
2023-04-03T18:52:10.311Z,1.40
2023-04-03T18:54:38.617Z,1.33
2023-04-03T18:57:06.895Z,1.30
2023-04-03T18:59:35.083Z,1.73
2023-04-03T19:02:04.575Z,1.70
2023-04-03T19:04:34.320Z,1.60
2023-04-03T19:07:06.588Z,1.70
2023-04-03T19:09:35.572Z,1.90
2023-04-03T19:12:04.008Z,1.60
2023-04-03T19:14:32.224Z,1.90
2023-04-03T19:17:02.361Z,1.10
2023-04-03T19:19:31.025Z,1.30
2023-04-03T19:22:00.856Z,1.30
2023-04-03T19:24:29.054Z,1.50
2023-04-03T19:26:57.349Z,1.67
2023-04-03T19:29:25.594Z,1.30
2023-04-03T19:31:53.945Z,1.60
2023-04-03T19:34:22.190Z,1.10
2023-04-03T19:36:52.226Z,1.30
2023-04-03T19:39:22.009Z,1.48
2023-04-03T19:41:50.872Z,1.40
2023-04-03T19:44:20.027Z,1.70
2023-04-03T19:46:51.239Z,2.10
2023-04-03T19:49:20.107Z,2.20
2023-04-03T19:51:48.757Z,2.65
2023-04-03T19:54:16.948Z,2.70
2023-04-03T19:56:46.691Z,2.67
2023-04-03T19:59:16.318Z,2.15
2023-04-03T20:01:46.441Z,1.80
2023-04-03T20:04:14.775Z,1.30
2023-04-03T20:06:43.118Z,1.48
2023-04-03T20:09:11.616Z,1.20
2023-04-03T20:11:41.303Z,1.48
2023-04-03T20:14:10.996Z,1.08
2023-04-03T20:16:39.455Z,1.10
2023-04-03T20:19:07.842Z,0.90
2023-04-03T20:21:36.704Z,1.40
2023-04-03T20:24:09.342Z,1.00
2023-04-03T20:26:43.862Z,1.10
2023-04-03T20:29:14.666Z,1.10
2023-04-03T20:31:43.391Z,1.60
2023-04-03T20:34:11.839Z,1.65
2023-04-03T20:36:40.137Z,1.90
2023-04-03T20:39:08.523Z,1.60
2023-04-03T20:41:38.450Z,1.90
2023-04-03T20:44:07.478Z,1.60
2023-04-03T20:46:51.260Z,2.10
2023-04-03T20:49:20.918Z,2.30
2023-04-03T20:51:51.188Z,2.80
2023-04-03T20:54:20.477Z,2.53
2023-04-03T20:56:49.994Z,2.72
2023-04-03T20:59:18.909Z,2.92
2023-04-03T21:01:48.997Z,3.25
2023-04-03T21:04:26.710Z,3.78
2023-04-03T21:07:32.776Z,5.20
2023-04-03T21:10:38.846Z,4.82
2023-04-03T21:13:44.488Z,4.43
2023-04-03T21:16:12.686Z,5.37
2023-04-03T21:19:02.881Z,6.43
2023-04-03T21:21:31.268Z,7.10
2023-04-03T21:24:00.129Z,4.38
2023-04-03T21:26:28.637Z,2.95
2023-04-03T21:28:57.116Z,3.85
2023-04-03T21:31:25.781Z,3.60
2023-04-03T21:33:55.427Z,4.55
2023-04-03T21:36:24.872Z,4.75
2023-04-03T21:38:58.040Z,4.72
2023-04-03T21:41:26.690Z,4.40
2023-04-03T21:43:54.957Z,3.40
2023-04-03T21:46:25.096Z,3.78
2023-04-03T21:48:55.216Z,3.80
2023-04-03T21:51:24.839Z,3.95
2023-04-03T21:53:53.769Z,3.65
2023-04-03T21:56:24.314Z,4.03
2023-04-03T21:58:54.563Z,4.25
2023-04-03T22:01:22.838Z,3.42
2023-04-03T22:03:51.334Z,4.30
2023-04-03T22:06:19.603Z,3.85
2023-04-03T22:08:49.137Z,4.20
2023-04-03T22:11:18.128Z,4.13
2023-04-03T22:13:46.580Z,3.30
2023-04-03T22:16:14.923Z,3.40
2023-04-03T22:18:43.143Z,3.65
2023-04-03T22:21:11.458Z,3.40
2023-04-03T22:23:39.683Z,3.67
2023-04-03T22:26:11.515Z,3.40
2023-04-03T22:28:40.992Z,3.80
2023-04-03T22:31:10.542Z,3.50
2023-04-03T22:33:39.338Z,3.30
2023-04-03T22:36:08.870Z,3.42
2023-04-03T22:38:37.535Z,2.92
2023-04-03T22:41:07.436Z,3.33
2023-04-03T22:43:38.539Z,3.20
2023-04-03T22:46:08.834Z,3.43
2023-04-03T22:48:38.625Z,3.08
2023-04-03T22:51:08.473Z,3.92
2023-04-03T22:53:38.274Z,3.72
2023-04-03T22:56:10.605Z,4.37
2023-04-03T22:58:40.210Z,3.58
2023-04-03T23:01:13.090Z,3.10
2023-04-03T23:03:42.852Z,3.40
2023-04-03T23:06:12.693Z,2.80
2023-04-03T23:08:42.056Z,2.60
2023-04-03T23:11:10.436Z,2.60
2023-04-03T23:13:40.055Z,2.60
2023-04-03T23:16:08.949Z,3.13
2023-04-03T23:18:39.873Z,2.40
2023-04-03T23:21:10.208Z,2.70
2023-04-03T23:23:38.458Z,2.27
2023-04-03T23:26:06.775Z,2.37
2023-04-03T23:28:36.865Z,2.13
2023-04-03T23:31:07.757Z,2.20
2023-04-03T23:33:36.116Z,2.17
2023-04-03T23:36:08.527Z,2.50
2023-04-03T23:38:37.488Z,2.30
2023-04-03T23:41:06.055Z,2.10
2023-04-03T23:43:34.258Z,2.00
2023-04-03T23:46:05.210Z,1.80
2023-04-03T23:48:34.892Z,2.10
2023-04-03T23:51:03.767Z,1.63
2023-04-03T23:53:32.124Z,1.70
2023-04-03T23:56:00.280Z,1.80
2023-04-03T23:58:28.564Z,1.77
